Jellicoe, Canada
Current Conditions -  °F | °C
As of 5:00 AM on Tuesday 27 Jan 2015 (Local Time) from CYGQ Reporting Station
Light Snow Light Snow  
Wind Chill: 12°   Ceiling: 2500
Heat Index: 12°   Visibility: 12mi
Dew Point: 10°   Wind: 2mph
Humidity: 92%   Direction: 130°SE
Pressure: 30.07"   Gusts: NA
Location:  49.68°N, 87.52°W
Report Text: CYGQ 271000Z 13002KT 12SM -SN OVC025 M11/M12 A3007 RMK SC8SLP210
Loading
Personal Weather Stations






























Interactive Weather Map New forecast layout! Learn more

10-Day Weather Forecast

Advertisements
Track Severe Weather on mobile